Terminal Aerodrome Forecast
Issued by NWS

Home | Current Version | Previous Version | Text Only | Print | Product List | Glossary On
Versions: 1 2 3 4 5 6 7 8 9 10 11 12 13 14 15 16 17 18 19 20 21
025
FTUS43 KGRR 231152
TAFAZO
TAF
KAZO 231152Z 2312/2412 36007KT 1/2SM FG OVC002
     FM231400 36007KT 1SM BR OVC003
     FM231600 36006KT 1 1/2SM BR OVC004
     FM231800 33006KT 3SM BR VCSH OVC004
     FM240400 29005KT 2SM BR OVC003=

USA.gov is the U.S. government's official web portal to all federal, state and local government web resources and services.